Beaver, Washington
Current Conditions -  °F | °C
As of 6:53 AM on Sunday 23 Nov 2014 (Local Time) from KUIL Reporting Station
Light Rain Light Rain  
Wind Chill: 50°   Ceiling: 4200
Heat Index: 50°   Visibility: 4mi
Dew Point: 48°   Wind: 9mph
Humidity: 93%   Direction: 250°WSW
Pressure: 30.05"   Gusts: NA
Location:  48.06°N, 124.35°W
Report Text: KUIL 231453Z AUTO 25008KT 4SM -RA BR SCT035 BKN042 OVC060 10/09 A3005 RMK AO2 WSHFT 1342 LTG DSNT W RAE16B42 SLP177 P0007 60033 T01000089 55002
Loading
Personal Weather Stations






























Interactive Weather Map New forecast layout! Learn more

10-Day Weather Forecast

Advertisements
Track Severe Weather on mobile